North Chelmsford, MA

3:17 PM EST on December 21, 2014 (GMT -0500)
Fitchburg Municipal | Change Station
CLOSE
Current Station
Airport
Location: Fitchburg,
Elevation: 348 ft
Nearby Weather Stations

Elev 348 ft 42.55 °N, 71.76 °W | Updated 25 minutes ago

Snow
Snow
34 °F
Feels Like 29 °F
N
6
Wind Variable Wind from NE

Today
High -- | Low -- °F
--% Chance of Precip.
Yesterday
High -- | Low -- °F
Precip. -- in
7:12 AM 4:15 PM
Waning Crescent, 0% visible
Pressure 30.33 in
Visibility 5.0 miles
Clouds Overcast 2000 ft
Windchill 29 °F
Dew Point 27 °F
Humidity 75%
Rainfall 0.00 in
Snow Depth Not available.
UV 0 out of 12
Pollen .10 out of 12
Air Quality Not available.
Flu Activity Not available.
METAR KFIT 211952Z AUTO 04005KT 5SM -SN OVC020 01/M03 A3031 RMK AO2 SNE02B38 SLP269 P0000 T00111028

More Conditions Fewer Conditions

Pressure 30.33 in
Visibility 5.0 miles
Clouds Overcast 2000 ft
Windchill 29 °F
Dew Point 27 °F
Humidity 75%
Rainfall 0.00 in
Snow Depth Not available.
UV 0 out of 12
Pollen .10 out of 12
Air Quality Not available.
Flu Activity Not available.
METAR KFIT 211952Z AUTO 04005KT 5SM -SN OVC020 01/M03 A3031 RMK AO2 SNE02B38 SLP269 P0000 T00111028

More Conditions Fewer Conditions

10-Day Weather Forecast

Almanac

Astronomy

Dec. 21, 2014 Rise Set
Actual Time
Civil Twilight
Nautical Twilight
Astronomical Twilight
Moon
Length of Visible Light
Length of Day
Tomorrow will be .
, % of the Moon is Illuminated

Today's Extremes

State Highs State Lows

Community

WunderPhotos

Upload Photos

1,779,469 photos uploaded!

WunderBlogs® & News

Nearby

Air Quality

  Air Quality AQ Index Pollutant
Not available.

Snow Depth

Station Depth Elevation

Earthquake Activity

City Distance Mag. Time & Date
Minimum magnitude displayed is 2.5.

Coastal Water Temperatures

Place Temperature

Nearby Weather Stations